Time;durP1;ratioP1;P1;durP2;ratioP2;P2;SDS_P1;SDS_P2;PMS_P1;PMS_P2;Temp;Humidity;BMP_temperature;BMP_pressure;BME280_temperature;BME280_humidity;BME280_pressure;Samples;Min_cycle;Max_cycle;Signal;HPM_P1;HPM_P2
2021/03/25 00:00:27;;;;;;;74.10;41.47;;;;;;;5.37;67.66;100681.13;115306;1200;103072;-78
2021/03/25 00:03:15;;;;;;;82.17;42.33;;;;;;;5.37;67.74;100683.71;115417;1199;103083;-77
2021/03/25 00:05:45;;;;;;;78.80;42.10;;;;;;;5.35;67.73;100680.28;115267;1199;103142;-77
2021/03/25 00:08:16;;;;;;;84.37;44.23;;;;;;;5.36;67.86;100675.97;115628;1199;103088;-77
2021/03/25 00:10:44;;;;;;;76.87;42.17;;;;;;;5.34;67.85;100678.56;115618;1200;102970;-78
2021/03/25 00:13:11;;;;;;;75.80;41.43;;;;;;;5.32;67.91;100669.95;115508;1199;103127;-77
2021/03/25 00:15:40;;;;;;;78.17;41.97;;;;;;;5.32;68.07;100674.27;115583;1199;103088;-76
2021/03/25 00:18:07;;;;;;;74.23;39.90;;;;;;;5.32;67.71;100669.95;115370;1199;103063;-77
2021/03/25 00:20:35;;;;;;;76.67;40.53;;;;;;;5.31;67.89;100668.23;115290;1199;103024;-77
2021/03/25 00:23:03;;;;;;;74.93;40.27;;;;;;;5.31;67.54;100663.06;115317;1199;103021;-77
2021/03/25 00:25:34;;;;;;;71.17;38.57;;;;;;;5.30;67.55;100663.92;115349;1199;103129;-78
2021/03/25 00:28:02;;;;;;;73.50;38.07;;;;;;;5.32;67.37;100663.92;115324;1199;103009;-77
2021/03/25 00:30:31;;;;;;;68.10;36.80;;;;;;;5.30;67.25;100663.92;115352;1200;103315;-77
2021/03/25 00:33:00;;;;;;;63.87;35.03;;;;;;;5.30;67.02;100656.17;115531;1199;102868;-77
2021/03/25 00:35:29;;;;;;;63.30;33.43;;;;;;;5.31;66.62;100660.47;115359;1197;103044;-77
2021/03/25 00:37:57;;;;;;;63.83;34.57;;;;;;;5.29;66.43;100659.63;115332;1197;103067;-78
2021/03/25 00:40:36;;;;;;;64.50;35.83;;;;;;;5.28;66.28;100651.88;115333;1199;103063;-77
2021/03/25 00:43:07;;;;;;;65.93;33.17;;;;;;;5.29;66.45;100656.17;115318;1199;103136;-78
2021/03/25 00:45:37;;;;;;;57.27;32.47;;;;;;;5.29;66.35;100651.00;115288;1199;103101;-77
2021/03/25 00:48:04;;;;;;;60.30;32.60;;;;;;;5.27;66.05;100648.43;115290;1200;103041;-77
2021/03/25 00:50:35;;;;;;;57.00;32.50;;;;;;;5.26;65.69;100653.61;115329;1198;103091;-77
2021/03/25 00:53:05;;;;;;;50.23;29.03;;;;;;;5.26;65.53;100651.02;115422;1199;100679;-77
2021/03/25 00:55:32;;;;;;;46.83;27.20;;;;;;;5.26;65.49;100638.09;115329;1199;102970;-78
2021/03/25 00:58:00;;;;;;;54.93;30.07;;;;;;;5.26;65.24;100645.85;115231;1199;102985;-77
2021/03/25 01:00:34;;;;;;;49.87;29.37;;;;;;;5.26;65.29;100645.85;115575;1199;103003;-76
2021/03/25 01:03:02;;;;;;;48.30;27.57;;;;;;;5.27;65.07;100644.98;115290;1198;103063;-77
2021/03/25 01:05:31;;;;;;;47.03;27.27;;;;;;;5.28;65.04;100641.53;115321;1199;103015;-77
2021/03/25 01:07:58;;;;;;;51.60;28.35;;;;;;;5.29;65.14;100641.52;115313;1197;103082;-77
2021/03/25 01:10:51;;;;;;;54.23;28.80;;;;;;;5.31;64.87;100646.69;115502;1200;101692;-76
2021/03/25 01:13:40;;;;;;;53.43;29.10;;;;;;;5.32;64.94;100638.05;115300;1199;102902;-78
2021/03/25 01:16:09;;;;;;;48.17;27.70;;;;;;;5.33;64.53;100634.60;115311;1199;103002;-77
2021/03/25 01:18:36;;;;;;;46.47;26.73;;;;;;;5.33;64.44;100638.05;115645;1199;103548;-77
2021/03/25 01:21:04;;;;;;;50.10;27.43;;;;;;;5.35;64.64;100638.03;115326;1199;104642;-78
2021/03/25 01:23:32;;;;;;;50.00;28.03;;;;;;;5.36;64.63;100638.02;115527;1198;102970;-77
2021/03/25 01:25:59;;;;;;;43.60;27.07;;;;;;;5.36;64.37;100626.82;115568;1199;103008;-77
2021/03/25 01:28:26;;;;;;;46.60;26.63;;;;;;;5.38;64.30;100628.53;115303;1199;103019;-77
2021/03/25 01:30:54;;;;;;;49.17;28.13;;;;;;;5.38;64.36;100627.67;115618;1199;103188;-78
2021/03/25 01:33:22;;;;;;;44.53;26.83;;;;;;;5.38;63.82;100618.18;115312;1199;103028;-77
2021/03/25 01:35:51;;;;;;;44.33;26.00;;;;;;;5.39;63.45;100625.11;115292;1197;103114;-77
2021/03/25 01:38:21;;;;;;;37.90;23.80;;;;;;;5.40;63.17;100621.65;115284;1200;103059;-78
2021/03/25 01:41:00;;;;;;;38.70;24.53;;;;;;;5.40;63.06;100625.97;115361;1199;103100;-77
2021/03/25 01:43:29;;;;;;;42.60;25.27;;;;;;;5.38;63.09;100620.77;115316;1199;103564;-77
2021/03/25 01:46:17;;;;;;;43.70;25.75;;;;;;;5.38;63.03;100628.53;115556;1200;103152;-77
2021/03/25 01:48:49;;;;;;;46.77;26.10;;;;;;;5.38;63.14;100617.32;115381;1200;103165;-76
2021/03/25 01:51:45;;;;;;;44.23;26.80;;;;;;;5.39;63.40;100617.34;115333;1200;103095;-77
2021/03/25 01:54:44;;;;;;;45.90;27.10;;;;;;;5.41;63.31;100620.78;115567;1199;102996;-77
2021/03/25 01:57:30;;;;;;;47.93;27.87;;;;;;;5.43;63.08;100621.63;115335;1200;100573;-77
2021/03/25 02:00:39;;;;;;;46.33;26.50;;;;;;;5.42;62.82;100616.47;115315;1199;103073;-77
2021/03/25 02:03:44;;;;;;;43.63;25.53;;;;;;;5.42;63.19;100616.47;115492;1198;103025;-78
2021/03/25 02:06:21;;;;;;;43.15;25.90;;;;;;;5.38;63.18;100613.01;115321;1200;103012;-77
2021/03/25 02:09:16;;;;;;;42.03;25.77;;;;;;;5.39;63.11;100612.17;115531;1200;103091;-77
2021/03/25 02:12:16;;;;;;;45.50;25.90;;;;;;;5.37;62.87;100613.02;115562;1200;103127;-77
2021/03/25 02:15:11;;;;;;;46.83;28.00;;;;;;;5.38;62.95;100606.98;115309;1199;103105;-77
2021/03/25 02:17:42;;;;;;;47.53;26.90;;;;;;;5.39;63.00;100606.14;115339;1199;103217;-77
2021/03/25 02:20:53;;;;;;;;;;;;;;;5.40;63.33;100603.55;115467;1204;102980;-77
2021/03/25 02:23:57;;;;;;;45.30;26.67;;;;;;;5.37;62.95;100606.12;115588;1199;103012;-78
2021/03/25 02:26:37;;;;;;;50.73;27.83;;;;;;;5.33;62.88;100607.01;115318;1200;103120;-76
2021/03/25 02:29:15;;;;;;;49.30;28.43;;;;;;;5.33;63.08;100606.15;115371;1199;103062;-77
2021/03/25 02:31:49;;;;;;;49.03;27.57;;;;;;;5.34;62.73;100607.87;115299;1199;103021;-77
2021/03/25 02:34:28;;;;;;;50.27;28.83;;;;;;;5.34;63.14;100611.31;115353;1199;103091;-78
2021/03/25 02:37:03;;;;;;;49.57;28.97;;;;;;;5.39;62.81;100613.90;115308;1198;103031;-77
2021/03/25 02:39:41;;;;;;;53.37;30.00;;;;;;;5.39;62.74;100604.41;115574;1199;103410;-77
2021/03/25 02:42:38;;;;;;;48.27;29.30;;;;;;;5.39;63.00;100607.00;115592;1198;103028;-78
2021/03/25 02:45:11;;;;;;;49.73;28.63;;;;;;;5.37;62.94;100600.09;115375;1199;103102;-77
2021/03/25 02:47:41;;;;;;;49.60;29.37;;;;;;;5.38;62.92;100604.39;115411;1199;103195;-77
2021/03/25 02:50:34;;;;;;;51.00;29.70;;;;;;;5.38;62.96;100600.08;115366;1199;103075;-78
2021/03/25 02:53:17;;;;;;;52.97;29.00;;;;;;;5.33;62.90;100603.56;115422;1199;103538;-77
2021/03/25 02:55:45;;;;;;;52.03;29.90;;;;;;;5.32;63.17;100609.61;115292;1199;103063;-78
2021/03/25 02:58:23;;;;;;;51.67;30.33;;;;;;;5.32;63.31;100609.61;115343;1199;103121;-78
2021/03/25 03:01:00;;;;;;;54.87;30.33;;;;;;;5.30;63.71;100607.03;115359;1200;103086;-78
2021/03/25 03:03:33;;;;;;;56.43;30.63;;;;;;;5.31;63.57;100607.89;115592;1200;103017;-77
2021/03/25 03:06:34;;;;;;;53.87;30.60;;;;;;;5.27;63.62;100599.30;115390;1199;102983;-77
2021/03/25 03:09:13;;;;;;;52.73;30.97;;;;;;;5.25;63.82;100606.20;115377;1197;103056;-78
2021/03/25 03:11:44;;;;;;;57.37;31.50;;;;;;;5.25;64.35;100600.17;115270;1200;103150;-77
2021/03/25 03:14:36;;;;;;;57.13;32.67;;;;;;;5.25;64.28;100600.17;115308;1199;103018;-78
2021/03/25 03:17:07;;;;;;;54.00;30.80;;;;;;;5.26;64.34;100600.16;115338;1199;103063;-78
2021/03/25 03:19:51;;;;;;;59.63;33.60;;;;;;;5.26;64.54;100600.16;115373;1199;103015;-77
2021/03/25 03:22:19;;;;;;;55.27;32.47;;;;;;;5.25;64.70;100595.00;115374;1199;103071;-78
2021/03/25 03:25:20;;;;;;;60.70;33.37;;;;;;;5.25;65.06;100603.61;115369;1199;103152;-77
2021/03/25 03:27:58;;;;;;;55.57;32.43;;;;;;;5.24;64.90;100599.31;115542;1199;103082;-77
2021/03/25 03:30:32;;;;;;;61.43;33.67;;;;;;;5.25;65.05;100600.17;115380;1199;103005;-77
2021/03/25 03:33:28;;;;;;;58.87;32.77;;;;;;;5.24;65.20;100598.45;115425;1199;103076;-78
2021/03/25 03:36:06;;;;;;;61.37;32.80;;;;;;;5.24;65.59;100607.07;115306;1199;103133;-77
2021/03/25 03:38:45;;;;;;;60.30;34.63;;;;;;;5.23;65.25;100607.08;115327;1200;103146;-78
2021/03/25 03:41:41;;;;;;;60.07;33.93;;;;;;;5.20;65.51;100602.75;115340;1198;103003;-77
2021/03/25 03:44:13;;;;;;;58.70;34.00;;;;;;;5.20;65.43;100596.72;115442;1198;103006;-77
2021/03/25 03:46:43;;;;;;;62.37;35.17;;;;;;;5.22;65.61;100598.46;115379;1199;102999;-77
2021/03/25 03:49:18;;;;;;;59.70;33.63;;;;;;;5.21;65.60;100601.92;115334;1200;103025;-78
2021/03/25 03:52:03;;;;;;;60.83;34.43;;;;;;;5.24;65.66;100603.63;115592;1198;103143;-77
2021/03/25 03:54:34;;;;;;;57.80;32.83;;;;;;;5.26;65.61;100604.47;115358;1199;103027;-78
2021/03/25 03:57:22;;;;;;;61.40;33.60;;;;;;;5.27;65.39;100601.88;115558;1198;103060;-77
2021/03/25 04:00:16;;;;;;;64.57;35.97;;;;;;;5.28;65.86;100595.84;115600;1200;103034;-77
2021/03/25 04:02:54;;;;;;;68.17;37.47;;;;;;;5.28;65.86;100590.66;115487;1198;103172;-76
2021/03/25 04:05:44;;;;;;;67.28;39.00;;;;;;;5.23;65.98;100597.59;115569;1200;103021;-77
2021/03/25 04:08:27;;;;;;;65.30;35.73;;;;;;;5.18;66.05;100595.88;115344;1198;103011;-77
2021/03/25 04:11:08;;;;;;;67.67;37.60;;;;;;;5.12;66.09;100597.63;115506;1200;103171;-77
2021/03/25 04:13:45;;;;;;;67.00;38.53;;;;;;;5.09;66.05;100599.38;115327;1199;103155;-77
2021/03/25 04:16:15;;;;;;;64.73;36.97;;;;;;;5.06;66.31;100601.98;115565;1199;103102;-78
2021/03/25 04:18:53;;;;;;;66.70;36.33;;;;;;;5.03;66.23;100602.86;115298;1199;102964;-77
2021/03/25 04:21:38;;;;;;;62.13;33.93;;;;;;;4.99;66.27;100608.02;115415;1199;102816;-78
2021/03/25 04:24:10;;;;;;;64.60;36.97;;;;;;;4.96;66.39;100611.48;115340;1199;103188;-79
2021/03/25 04:26:49;;;;;;;64.63;35.97;;;;;;;4.95;66.70;100607.17;115531;1198;103040;-78
2021/03/25 04:29:26;;;;;;;63.43;34.57;;;;;;;4.94;66.56;100617.52;115477;1200;103159;-77
2021/03/25 04:31:55;;;;;;;63.77;36.37;;;;;;;4.92;66.92;100607.19;115374;1199;104669;-78
2021/03/25 04:34:23;;;;;;;61.63;35.70;;;;;;;4.91;66.97;100609.78;115488;1200;103142;-78
2021/03/25 04:36:51;;;;;;;62.13;36.43;;;;;;;4.91;66.99;100609.78;115577;1198;103162;-78
2021/03/25 04:39:21;;;;;;;68.03;36.77;;;;;;;4.92;67.28;100608.92;115631;1199;103099;-77
2021/03/25 04:41:49;;;;;;;65.17;36.80;;;;;;;4.92;67.02;100612.36;115604;1199;103140;-77
2021/03/25 04:44:45;;;;;;;68.23;37.40;;;;;;;4.94;67.25;100608.05;115509;1199;103293;-77
2021/03/25 04:47:15;;;;;;;68.87;37.50;;;;;;;4.94;67.11;100604.59;115345;1199;103034;-78
2021/03/25 04:49:49;;;;;;;67.67;37.87;;;;;;;4.96;67.12;100602.86;115571;1200;103088;-78
2021/03/25 04:52:22;;;;;;;62.90;36.77;;;;;;;4.93;67.17;100606.33;115337;1199;103040;-78
2021/03/25 04:54:51;;;;;;;61.27;34.83;;;;;;;4.87;67.56;100618.42;115645;1199;103054;-77
2021/03/25 04:57:21;;;;;;;63.87;35.80;;;;;;;4.82;67.34;100616.69;115316;1199;102931;-78
2021/03/25 04:59:51;;;;;;;71.17;37.80;;;;;;;4.83;67.42;100615.81;115457;1199;103060;-78
2021/03/25 05:02:18;;;;;;;67.50;38.37;;;;;;;4.85;67.43;100608.95;115312;1199;103127;-78
2021/03/25 05:04:52;;;;;;;70.07;38.00;;;;;;;4.89;67.83;100609.79;115445;1198;102039;-78
2021/03/25 05:07:24;;;;;;;64.37;36.00;;;;;;;4.90;67.61;100613.23;115343;1199;103149;-77
2021/03/25 05:09:54;;;;;;;66.80;36.53;;;;;;;4.91;67.67;100613.23;115359;1199;103038;-77
2021/03/25 05:12:22;;;;;;;65.77;36.87;;;;;;;4.93;67.56;100618.39;115327;1199;103057;-78
2021/03/25 05:14:54;;;;;;;69.97;38.57;;;;;;;4.96;67.30;100626.13;115297;1197;103037;-78
2021/03/25 05:17:40;;;;;;;72.40;39.47;;;;;;;4.99;67.57;100620.94;115490;1200;103111;-77
2021/03/25 05:20:41;;;;;;;68.95;38.35;;;;;;;5.00;67.84;100620.94;115600;1199;102967;-78
2021/03/25 05:23:14;;;;;;;65.80;37.17;;;;;;;5.00;67.70;100630.41;115210;1199;103127;-78
2021/03/25 05:26:05;;;;;;;67.10;38.33;;;;;;;4.98;67.72;100622.67;115527;1199;102983;-77
2021/03/25 05:28:39;;;;;;;69.40;38.67;;;;;;;4.99;67.78;100621.80;115558;1199;103018;-78
2021/03/25 05:31:10;;;;;;;76.75;40.70;;;;;;;5.01;67.92;100626.97;115287;1199;101786;-78
2021/03/25 05:33:38;;;;;;;67.93;38.57;;;;;;;5.03;67.94;100620.09;115330;1198;102473;-78
2021/03/25 05:36:11;;;;;;;71.23;39.83;;;;;;;5.06;67.74;100620.08;115322;1199;103038;-77
2021/03/25 05:38:39;;;;;;;68.70;37.77;;;;;;;5.11;67.65;100615.73;115463;1199;103439;-78
2021/03/25 05:41:06;;;;;;;70.50;38.73;;;;;;;5.13;67.78;100619.17;115374;1200;103763;-78
2021/03/25 05:43:52;;;;;;;66.30;37.37;;;;;;;5.15;67.79;100628.64;115608;1198;103025;-78
2021/03/25 05:46:31;;;;;;;67.63;38.33;;;;;;;5.17;67.65;100623.45;115316;1199;104732;-78
2021/03/25 05:49:25;;;;;;;71.70;37.93;;;;;;;5.21;67.40;100630.36;115556;1199;103001;-77
2021/03/25 05:51:55;;;;;;;66.07;37.70;;;;;;;5.23;67.23;100632.94;115212;1202;103012;-78
2021/03/25 05:54:47;;;;;;;68.85;37.95;;;;;;;5.25;67.33;100629.48;115202;1202;102996;-78
2021/03/25 05:57:22;;;;;;;63.40;37.00;;;;;;;5.26;67.51;100636.37;115227;1202;103028;-78
2021/03/25 06:00:15;;;;;;;66.80;36.27;;;;;;;5.29;67.09;100641.52;115263;1203;103427;-78
2021/03/25 06:03:10;;;;;;;64.80;35.85;;;;;;;5.33;67.10;100639.77;114969;1201;103017;-78
2021/03/25 06:05:39;;;;;;;66.95;34.55;;;;;;;5.34;66.99;100637.17;114963;1203;102841;-78
2021/03/25 06:08:25;;;;;;;58.85;33.75;;;;;;;5.38;67.05;100645.78;114953;1206;103296;-78
2021/03/25 06:11:02;;;;;;;69.43;39.50;;;;;;;5.39;66.74;100640.63;114975;1203;106280;-78
2021/03/25 06:13:55;;;;;;;64.97;35.47;;;;;;;5.42;66.83;100640.60;114836;1203;103182;-78
2021/03/25 06:16:35;;;;;;;66.50;38.20;;;;;;;5.45;66.83;100650.08;114943;1203;103303;-78
2021/03/25 06:19:24;;;;;;;61.20;35.20;;;;;;;5.51;66.56;100646.59;114920;1206;103140;-78
2021/03/25 06:22:03;;;;;;;63.35;35.35;;;;;;;5.56;66.60;100645.69;114964;1204;103024;-78
2021/03/25 06:24:56;;;;;;;63.70;35.40;;;;;;;5.63;66.46;100641.35;114963;1206;103137;-77
2021/03/25 06:27:25;;;;;;;53.53;33.33;;;;;;;5.67;66.65;100648.22;114904;1206;103179;-77
2021/03/25 06:29:58;;;;;;;58.87;33.37;;;;;;;5.71;66.44;100649.92;114957;1202;103172;-78
2021/03/25 06:32:31;;;;;;;57.17;32.67;;;;;;;5.71;66.00;100644.74;115055;1202;103130;-78
2021/03/25 06:35:03;;;;;;;54.90;31.25;;;;;;;5.74;66.31;100642.13;115110;1202;103184;-78
2021/03/25 06:37:30;;;;;;;59.30;33.80;;;;;;;5.80;66.25;100647.30;115063;1203;103021;-78
2021/03/25 06:40:03;;;;;;;61.17;34.07;;;;;;;5.86;66.17;100647.23;115356;1199;103236;-78
2021/03/25 06:42:49;;;;;;;58.57;33.27;;;;;;;5.92;65.64;100651.54;115446;1199;103165;-77
2021/03/25 06:45:27;;;;;;;63.80;34.13;;;;;;;5.97;65.63;100655.84;115562;1198;103043;-78
2021/03/25 06:48:19;;;;;;;60.60;31.80;;;;;;;6.00;65.86;100653.23;115591;1199;103002;-78
2021/03/25 06:50:50;;;;;;;53.90;32.00;;;;;;;6.03;65.55;100648.02;115371;1199;103012;-78
2021/03/25 06:53:30;;;;;;;54.37;31.63;;;;;;;6.06;65.30;100652.31;115343;1198;103101;-77
2021/03/25 06:56:05;;;;;;;61.87;34.03;;;;;;;6.09;65.04;100659.19;115296;1198;103156;-78
2021/03/25 06:58:45;;;;;;;62.73;33.57;;;;;;;6.09;65.05;100654.02;115530;1200;103474;-77
2021/03/25 07:01:46;;;;;;;62.27;33.20;;;;;;;6.12;65.32;100660.05;115346;1198;103158;-77
2021/03/25 07:04:20;;;;;;;56.33;32.87;;;;;;;6.24;65.59;100667.71;115643;1199;103078;-79
2021/03/25 07:06:49;;;;;;;54.80;32.45;;;;;;;6.34;65.43;100663.33;115611;1199;101572;-78
2021/03/25 07:09:23;;;;;;;64.27;33.07;;;;;;;6.41;65.00;100652.03;115371;1199;103004;-79
2021/03/25 07:11:50;;;;;;;87.40;48.60;;;;;;;6.49;64.92;100658.02;115357;1199;103015;-80
2021/03/25 07:14:21;;;;;;;62.60;35.10;;;;;;;6.56;64.49;100662.27;115408;1199;103144;-80
2021/03/25 07:16:49;;;;;;;55.53;31.50;;;;;;;6.61;64.09;100660.48;115415;1198;102993;-80
2021/03/25 07:19:22;;;;;;;50.83;29.80;;;;;;;6.66;63.27;100656.14;115491;1200;102047;-80
2021/03/25 07:21:51;;;;;;;49.40;28.87;;;;;;;6.69;62.65;100655.24;115472;1198;102982;-79
2021/03/25 07:24:32;;;;;;;46.47;27.37;;;;;;;6.72;62.26;100659.53;115551;1199;103021;-79
2021/03/25 07:27:05;;;;;;;53.23;29.03;;;;;;;6.74;62.21;100663.83;115522;1199;103095;-80
2021/03/25 07:29:37;;;;;;;54.00;29.45;;;;;;;6.73;62.15;100664.70;115545;1198;103043;-80
2021/03/25 07:32:04;;;;;;;55.00;31.13;;;;;;;6.73;61.96;100664.70;115579;1199;103532;-81
2021/03/25 07:34:45;;;;;;;51.87;29.30;;;;;;;6.73;62.26;100663.84;115716;1199;102999;-81
2021/03/25 07:37:16;;;;;;;53.23;30.63;;;;;;;6.75;62.11;100667.28;115566;1198;103111;-80
2021/03/25 07:39:48;;;;;;;49.73;28.67;;;;;;;6.74;61.39;100665.56;115529;1199;103054;-81
2021/03/25 07:42:34;;;;;;;48.50;28.60;;;;;;;6.75;61.71;100667.28;115490;1199;103041;-80
2021/03/25 07:45:25;;;;;;;52.10;29.10;;;;;;;6.81;61.44;100672.39;115467;1198;103082;-80
2021/03/25 07:47:53;;;;;;;49.03;27.37;;;;;;;6.85;61.45;100668.92;115469;1198;103005;-81
2021/03/25 07:50:31;;;;;;;52.93;28.97;;;;;;;6.89;61.11;100668.86;115587;1199;103011;-81
2021/03/25 07:53:19;;;;;;;48.17;29.10;;;;;;;6.98;61.06;100673.08;115494;1199;103060;-81
2021/03/25 07:55:46;;;;;;;51.20;27.85;;;;;;;7.07;60.64;100666.95;115515;1198;102983;-80
2021/03/25 07:58:33;;;;;;;43.70;27.10;;;;;;;7.13;59.92;100670.32;115540;1199;101482;-80
2021/03/25 08:01:15;;;;;;;45.90;27.30;;;;;;;7.22;60.24;100665.05;115573;1197;103209;-80
2021/03/25 08:03:47;;;;;;;45.77;27.90;;;;;;;7.28;59.85;100659.77;115721;1199;102880;-79
2021/03/25 08:06:36;;;;;;;50.43;29.43;;;;;;;7.34;59.26;100657.97;115683;1199;102977;-79
2021/03/25 08:09:13;;;;;;;49.90;29.07;;;;;;;7.36;58.65;100657.09;115585;1199;103073;-80
2021/03/25 08:12:02;;;;;;;51.98;28.15;;;;;;;7.40;58.65;100663.10;115520;1199;103120;-80
2021/03/25 08:14:33;;;;;;;46.95;28.00;;;;;;;7.46;58.41;100663.02;115674;1199;103229;-79
2021/03/25 08:17:30;;;;;;;47.17;28.17;;;;;;;7.54;58.58;100661.16;115436;1199;103082;-80
2021/03/25 08:20:22;;;;;;;43.10;26.77;;;;;;;7.61;58.33;100667.16;115476;1198;102983;-79
2021/03/25 08:22:58;;;;;;;44.60;27.17;;;;;;;7.67;58.01;100667.92;115518;1199;103030;-80
2021/03/25 08:25:42;;;;;;;42.50;26.28;;;;;;;7.72;58.01;100666.14;115684;1199;103079;-79
2021/03/25 08:28:42;;;;;;;46.20;27.03;;;;;;;7.74;57.46;100664.38;115513;1198;101692;-80
2021/03/25 08:31:34;;;;;;;44.97;26.80;;;;;;;7.75;57.41;100663.50;115721;1199;103063;-79
2021/03/25 08:34:04;;;;;;;43.60;27.50;;;;;;;7.81;57.84;100663.40;115527;1199;103140;-79
2021/03/25 08:36:40;;;;;;;47.47;26.83;;;;;;;7.84;57.10;100663.34;115671;1199;103034;-80
2021/03/25 08:39:32;;;;;;;53.00;30.63;;;;;;;7.89;56.78;100668.47;115749;1199;103101;-79
2021/03/25 08:42:16;;;;;;;49.07;29.13;;;;;;;7.93;56.62;100662.38;115663;1200;102986;-79
2021/03/25 08:44:58;;;;;;;44.17;27.97;;;;;;;7.94;56.62;100660.64;115472;1197;103078;-79
2021/03/25 08:47:36;;;;;;;;;;;;;;;8.01;56.23;100664.84;115629;1204;102810;-79
2021/03/25 08:50:33;;;;;;;42.77;26.50;;;;;;;8.14;55.95;100659.45;115438;1197;102990;-78
2021/03/25 08:53:07;;;;;;;;;;;;;;;8.39;55.76;100664.27;115695;1205;103095;-80
2021/03/25 08:55:38;;;;;;;43.07;26.23;;;;;;;8.71;56.73;100653.33;115470;1200;103011;-79
2021/03/25 08:58:17;;;;;;;39.95;24.50;;;;;;;9.14;57.35;100660.31;115418;1199;103102;-76
2021/03/25 09:00:52;;;;;;;50.30;29.23;;;;;;;9.60;56.54;100655.03;115432;1199;103031;-80
2021/03/25 09:03:36;;;;;;;44.87;28.00;;;;;;;9.94;55.64;100655.14;115422;1199;103018;-79
2021/03/25 09:06:16;;;;;;;45.87;28.67;;;;;;;10.27;54.19;100659.59;115441;1199;103062;-79
2021/03/25 09:08:45;;;;;;;47.23;28.67;;;;;;;10.46;53.43;100657.39;115547;1199;103060;-79
2021/03/25 09:11:15;;;;;;;47.03;28.93;;;;;;;10.55;52.46;100656.28;115372;1198;103516;-80
2021/03/25 09:13:58;;;;;;;41.20;27.77;;;;;;;10.63;52.01;100656.96;115365;1198;103118;-79
2021/03/25 09:16:35;;;;;;;50.37;28.57;;;;;;;10.72;51.47;100661.06;115396;1199;103191;-79
2021/03/25 09:19:16;;;;;;;43.87;28.83;;;;;;;10.87;51.31;100655.45;115395;1199;103070;-79
2021/03/25 09:21:46;;;;;;;42.70;28.60;;;;;;;11.07;51.27;100652.30;115425;1199;102977;-79
2021/03/25 09:24:14;;;;;;;43.37;28.60;;;;;;;11.31;49.48;100655.96;115479;1199;102832;-78
2021/03/25 09:26:54;;;;;;;39.83;27.33;;;;;;;11.31;49.19;100656.84;115498;1199;103104;-78
2021/03/25 09:29:28;;;;;;;40.00;27.53;;;;;;;11.34;48.96;100653.28;115517;1199;103075;-79
2021/03/25 09:31:55;;;;;;;40.97;28.53;;;;;;;11.50;48.74;100651.95;115553;1200;103145;-79
2021/03/25 09:34:23;;;;;;;39.57;27.90;;;;;;;11.63;48.65;100652.41;115493;1199;103086;-79
2021/03/25 09:36:56;;;;;;;41.68;28.15;;;;;;;11.76;49.05;100648.54;115771;1199;103051;-79
2021/03/25 09:39:34;;;;;;;45.47;28.33;;;;;;;11.94;48.72;100644.53;115523;1200;102810;-79
2021/03/25 09:42:25;;;;;;;39.73;26.47;;;;;;;12.06;48.06;100644.16;115534;1198;103414;-80
2021/03/25 09:45:40;;;;;;;40.37;28.03;;;;;;;12.34;48.19;100650.19;115564;1198;103032;-79
2021/03/25 09:48:21;;;;;;;38.80;27.27;;;;;;;12.74;47.86;100642.74;115230;1202;103226;-79
2021/03/25 09:51:14;;;;;;;42.20;29.47;;;;;;;13.13;47.15;100637.88;115369;1202;103325;-78
2021/03/25 09:54:00;;;;;;;40.57;29.90;;;;;;;13.39;46.31;100635.17;115321;1203;102989;-79
2021/03/25 09:56:29;;;;;;;42.85;30.80;;;;;;;13.60;45.94;100634.36;115191;1203;102301;-79
2021/03/25 09:58:59;;;;;;;41.20;29.70;;;;;;;13.92;45.71;100629.63;115243;1202;102998;-79
2021/03/25 10:01:54;;;;;;;38.47;27.83;;;;;;;14.18;45.32;100634.70;115249;1202;102985;-79
2021/03/25 10:04:27;;;;;;;37.75;28.30;;;;;;;14.39;44.74;100625.08;115101;1201;103124;-80
2021/03/25 10:07:10;;;;;;;38.30;27.80;;;;;;;14.88;44.38;100628.24;115159;1202;103089;-79
2021/03/25 10:09:49;;;;;;;37.40;27.10;;;;;;;15.24;43.75;100630.16;115428;1203;103047;-80
2021/03/25 10:12:45;;;;;;;42.43;30.30;;;;;;;15.40;42.91;100626.76;115217;1203;103102;-80
2021/03/25 10:16:00;;;;;;;40.30;29.67;;;;;;;15.67;43.00;100624.67;115357;1203;103242;-79
2021/03/25 10:18:27;;;;;;;36.25;27.65;;;;;;;16.17;43.21;100625.80;114959;1205;103133;-78
2021/03/25 10:20:57;;;;;;;38.35;28.40;;;;;;;16.86;42.39;100610.00;115023;1205;103066;-81
2021/03/25 10:23:32;;;;;;;37.67;27.43;;;;;;;17.53;41.68;100609.87;114994;1201;103107;-80
2021/03/25 10:26:12;;;;;;;35.03;27.23;;;;;;;18.01;40.89;100609.88;115200;1202;103262;-79
2021/03/25 10:28:43;;;;;;;38.80;27.60;;;;;;;18.46;40.28;100601.06;115263;1203;102992;-79
2021/03/25 10:31:18;;;;;;;34.00;26.00;;;;;;;19.01;38.86;100613.63;115168;1202;102986;-80
2021/03/25 10:33:47;;;;;;;36.05;27.25;;;;;;;18.97;38.57;100602.39;115216;1202;104617;-77
2021/03/25 10:36:39;;;;;;;34.47;26.47;;;;;;;19.13;38.63;100606.75;115295;1201;103169;-80
2021/03/25 10:39:36;;;;;;;33.80;26.97;;;;;;;19.22;38.08;100596.46;114942;1206;101962;-80
2021/03/25 10:42:24;;;;;;;34.95;27.40;;;;;;;19.39;37.63;100594.53;114963;1206;103194;-79
2021/03/25 10:44:54;;;;;;;36.05;26.70;;;;;;;19.55;37.30;100592.64;114953;1206;103066;-80
2021/03/25 10:47:30;;;;;;;35.07;28.47;;;;;;;19.49;36.83;100587.72;114920;1206;103078;-79
2021/03/25 10:50:00;;;;;;;34.33;26.67;;;;;;;19.47;37.08;100584.33;114851;1204;103321;-77
2021/03/25 10:52:41;;;;;;;41.60;31.00;;;;;;;19.53;37.13;100586.57;114926;1204;103075;-80
2021/03/25 10:55:30;;;;;;;35.30;27.05;;;;;;;19.80;36.66;100579.55;115066;1203;103143;-83
2021/03/25 10:58:02;;;;;;;35.13;28.10;;;;;;;19.86;35.86;100586.23;115128;1202;103069;-79
2021/03/25 11:00:38;;;;;;;37.20;28.90;;;;;;;19.45;35.81;100580.94;115148;1202;103229;-81
2021/03/25 11:03:35;;;;;;;39.68;29.78;;;;;;;18.90;35.53;100579.09;115286;1202;103050;-81
2021/03/25 11:06:03;;;;;;;37.77;29.07;;;;;;;18.74;36.41;100573.89;115325;1202;101756;-80
2021/03/25 11:08:35;;;;;;;34.80;27.85;;;;;;;18.82;36.19;100566.33;115259;1201;103210;-81
2021/03/25 11:11:11;;;;;;;36.57;28.23;;;;;;;18.93;36.59;100574.46;115354;1202;102928;-79
2021/03/25 11:13:40;;;;;;;35.00;27.65;;;;;;;18.75;35.42;100564.17;115393;1201;103210;-80
2021/03/25 11:16:18;;;;;;;36.60;28.10;;;;;;;18.20;35.85;100567.44;115368;1198;103520;-79
2021/03/25 11:18:55;;;;;;;39.13;29.77;;;;;;;17.62;35.79;100570.75;115500;1198;103168;-80
2021/03/25 11:21:38;;;;;;;39.20;30.53;;;;;;;17.16;36.35;100560.09;115457;1199;103030;-81
2021/03/25 11:24:15;;;;;;;40.55;30.85;;;;;;;16.80;36.42;100561.13;115509;1199;103149;-80
2021/03/25 11:26:43;;;;;;;38.95;29.88;;;;;;;16.47;36.45;100557.58;115508;1199;103118;-80
2021/03/25 11:29:15;;;;;;;45.00;32.60;;;;;;;16.22;37.15;100555.36;115486;1199;103496;-80
2021/03/25 11:31:44;;;;;;;41.60;30.50;;;;;;;16.28;37.20;100555.89;115480;1199;103497;-81
2021/03/25 11:34:31;;;;;;;46.83;34.97;;;;;;;16.06;37.02;100546.53;115479;1197;103131;-81
2021/03/25 11:37:00;;;;;;;44.10;31.37;;;;;;;15.96;37.67;100551.38;115505;1197;102992;-80
2021/03/25 11:39:31;;;;;;;41.90;31.57;;;;;;;16.08;38.05;100549.94;115516;1198;103075;-80
2021/03/25 11:42:01;;;;;;;43.77;32.50;;;;;;;16.28;37.91;100544.52;115561;1199;103028;-80
2021/03/25 11:44:42;;;;;;;41.03;31.10;;;;;;;16.45;37.67;100541.02;115559;1200;103037;-81
2021/03/25 11:47:41;;;;;;;42.95;31.55;;;;;;;16.29;37.14;100543.58;115466;1198;103011;-80